createdAt,value
2023-03-24T00:01:56.122Z,94824.91
2023-03-24T00:04:25.545Z,94817.19
2023-03-24T00:06:55.058Z,94817.19
2023-03-24T00:09:23.227Z,94812.19
2023-03-24T00:11:51.003Z,94810.06
2023-03-24T00:14:18.812Z,94801.44
2023-03-24T00:16:46.731Z,94794.31
2023-03-24T00:19:18.261Z,94781.66
2023-03-24T00:21:46.054Z,94779.50
2023-03-24T00:24:15.207Z,94780.03
2023-03-24T00:26:45.630Z,94773.91
2023-03-24T00:29:13.665Z,94776.31
2023-03-24T00:31:41.493Z,94770.63
2023-03-24T00:34:10.452Z,94758.53
2023-03-24T00:36:40.631Z,94750.31
2023-03-24T00:39:08.448Z,94750.44
2023-03-24T00:41:37.548Z,94746.00
2023-03-24T00:44:06.513Z,94744.41
2023-03-24T00:46:35.385Z,94747.94
2023-03-24T00:49:05.885Z,94736.34
2023-03-24T00:51:37.198Z,94735.41
2023-03-24T00:54:05.787Z,94734.31
2023-03-24T00:56:36.002Z,94723.34
2023-03-24T00:59:05.913Z,94724.63
2023-03-24T01:01:36.526Z,94724.25
2023-03-24T01:04:06.926Z,94734.31
2023-03-24T01:06:37.479Z,94730.88
2023-03-24T01:09:06.728Z,94727.22
2023-03-24T01:11:38.908Z,94726.72
2023-03-24T01:14:08.788Z,94734.19
2023-03-24T01:16:36.726Z,94750.28
2023-03-24T01:19:09.213Z,94761.94
2023-03-24T01:21:37.871Z,94749.19
2023-03-24T01:24:06.992Z,94755.22
2023-03-24T01:26:35.051Z,94749.28
2023-03-24T01:29:02.868Z,94749.09
2023-03-24T01:31:32.148Z,94747.63
2023-03-24T01:33:59.970Z,94751.22
2023-03-24T01:36:27.901Z,94745.06
2023-03-24T01:39:00.185Z,94743.09
2023-03-24T01:41:28.874Z,94740.41
2023-03-24T01:43:56.646Z,94731.88
2023-03-24T01:46:26.477Z,94735.13
2023-03-24T01:49:00.653Z,94729.88
2023-03-24T01:51:34.719Z,94720.06
2023-03-24T01:54:05.658Z,94727.19
2023-03-24T01:56:36.484Z,94703.88
2023-03-24T01:59:09.808Z,94719.25
2023-03-24T02:01:38.213Z,94724.47
2023-03-24T02:04:08.774Z,94726.16
2023-03-24T02:06:41.450Z,94732.59
2023-03-24T02:09:10.431Z,94737.13
2023-03-24T02:11:41.054Z,94726.88
2023-03-24T02:14:10.057Z,94747.34
2023-03-24T02:16:54.351Z,94742.22
2023-03-24T02:19:56.051Z,94741.44
2023-03-24T02:23:02.857Z,94723.06
2023-03-24T02:26:08.384Z,94742.84
2023-03-24T02:28:46.231Z,94730.09
2023-03-24T02:31:29.136Z,94736.09
2023-03-24T02:34:41.642Z,94729.69
2023-03-24T02:37:38.797Z,94730.88
2023-03-24T02:40:25.023Z,94735.91
2023-03-24T02:43:03.975Z,94748.56
2023-03-24T02:45:37.340Z,94746.25
2023-03-24T02:48:17.711Z,94748.25
2023-03-24T02:50:51.943Z,94756.00
2023-03-24T02:53:26.203Z,94738.22
2023-03-24T02:56:01.753Z,94734.41
2023-03-24T02:58:35.804Z,94745.75
2023-03-24T03:01:08.048Z,94729.16
2023-03-24T03:03:41.612Z,94729.09
2023-03-24T03:06:15.480Z,94726.75
2023-03-24T03:08:44.466Z,94723.97
2023-03-24T03:11:17.067Z,94722.34
2023-03-24T03:13:50.230Z,94720.06
2023-03-24T03:16:25.290Z,94715.63
2023-03-24T03:18:58.832Z,94710.28
2023-03-24T03:21:32.398Z,94706.66
2023-03-24T03:24:03.221Z,94707.66
2023-03-24T03:26:34.197Z,94705.63
2023-03-24T03:29:06.133Z,94698.72
2023-03-24T03:31:41.845Z,94696.63
2023-03-24T03:34:18.839Z,94698.81
2023-03-24T03:36:51.498Z,94691.38
2023-03-24T03:39:24.422Z,94677.69
2023-03-24T03:41:53.710Z,94684.31
2023-03-24T03:44:21.529Z,94685.63
2023-03-24T03:46:49.405Z,94680.00
2023-03-24T03:49:17.181Z,94675.16
2023-03-24T03:51:45.110Z,94656.00
2023-03-24T03:54:15.414Z,94651.44
2023-03-24T03:56:48.452Z,94640.09
2023-03-24T03:59:30.083Z,94642.50
2023-03-24T04:01:58.538Z,94634.47
2023-03-24T04:04:42.654Z,94627.69
2023-03-24T04:07:19.100Z,94625.88
2023-03-24T04:10:01.234Z,94612.31
2023-03-24T04:12:45.734Z,94621.25
2023-03-24T04:15:35.624Z,94622.25
2023-03-24T04:18:15.637Z,94613.38
2023-03-24T04:20:48.717Z,94622.22
2023-03-24T04:23:27.442Z,94620.31
2023-03-24T04:26:06.219Z,94619.88
2023-03-24T04:28:40.928Z,94620.53
2023-03-24T04:31:17.760Z,94607.16
2023-03-24T04:33:51.344Z,94616.81
2023-03-24T04:36:27.401Z,94614.41
2023-03-24T04:38:57.360Z,94622.84
2023-03-24T04:41:29.379Z,94615.13
2023-03-24T04:43:58.868Z,94617.47
2023-03-24T04:46:28.493Z,94610.81
2023-03-24T04:48:56.257Z,94610.19
2023-03-24T04:51:24.239Z,94612.59
2023-03-24T04:53:51.846Z,94607.44
2023-03-24T04:56:39.233Z,94614.03
2023-03-24T04:59:08.260Z,94609.00
2023-03-24T05:01:37.635Z,94610.44
2023-03-24T05:04:05.813Z,94612.25
2023-03-24T05:06:33.718Z,94601.88
2023-03-24T05:09:01.369Z,94598.03
2023-03-24T05:11:29.530Z,94612.91
2023-03-24T05:13:57.344Z,94617.72
2023-03-24T05:16:25.030Z,94629.13
2023-03-24T05:18:54.008Z,94640.81
2023-03-24T05:21:21.945Z,94652.88
2023-03-24T05:23:49.595Z,94643.03
2023-03-24T05:26:17.520Z,94649.06
2023-03-24T05:28:45.576Z,94664.81
2023-03-24T05:31:13.441Z,94659.03
2023-03-24T05:33:41.568Z,94653.09
2023-03-24T05:36:11.776Z,94652.78
2023-03-24T05:38:39.560Z,94665.38
2023-03-24T05:41:08.076Z,94667.03
2023-03-24T05:43:35.920Z,94668.03
2023-03-24T05:46:03.762Z,94669.19
2023-03-24T05:48:31.498Z,94674.31
2023-03-24T05:50:59.131Z,94665.34
2023-03-24T05:53:28.241Z,94656.97
2023-03-24T05:55:58.649Z,94661.31
2023-03-24T05:58:26.434Z,94661.50
2023-03-24T06:00:54.628Z,94656.38
2023-03-24T06:03:22.446Z,94673.66
2023-03-24T06:05:50.786Z,94669.47
2023-03-24T06:08:18.649Z,94660.50
2023-03-24T06:10:48.408Z,94669.88
2023-03-24T06:13:16.297Z,94663.75
2023-03-24T06:15:47.924Z,94665.97
2023-03-24T06:18:15.940Z,94648.22
2023-03-24T06:20:45.041Z,94641.53
2023-03-24T06:23:12.736Z,94638.69
2023-03-24T06:25:47.054Z,94632.88
2023-03-24T06:28:16.202Z,94628.56
2023-03-24T06:30:45.014Z,94621.72
2023-03-24T06:33:12.738Z,94627.22
2023-03-24T06:35:40.755Z,94636.47
2023-03-24T06:38:09.087Z,94633.63
2023-03-24T06:40:36.826Z,94633.78
2023-03-24T06:43:08.292Z,94633.16
2023-03-24T06:45:39.427Z,94618.47
2023-03-24T06:48:07.271Z,94622.16
2023-03-24T06:50:35.562Z,94619.63
2023-03-24T06:53:03.542Z,94615.81
2023-03-24T06:55:31.188Z,94617.25
2023-03-24T06:57:58.868Z,94625.09
2023-03-24T07:00:26.809Z,94620.03
2023-03-24T07:02:56.161Z,94606.13
2023-03-24T07:05:26.597Z,94617.00
2023-03-24T07:08:27.946Z,94623.91
2023-03-24T07:10:42.461Z,94612.41
2023-03-24T07:13:10.183Z,94621.19
2023-03-24T07:15:37.893Z,94629.53
2023-03-24T07:18:07.594Z,94625.38
2023-03-24T07:20:35.384Z,94644.84
2023-03-24T07:23:03.321Z,94655.56
2023-03-24T07:25:31.046Z,94654.44
2023-03-24T07:27:58.742Z,94652.81
2023-03-24T07:30:37.284Z,94662.22
2023-03-24T07:33:12.289Z,94675.44
2023-03-24T07:35:40.413Z,94699.06
2023-03-24T07:38:08.183Z,94706.72
2023-03-24T07:40:36.081Z,94716.16
2023-03-24T07:43:09.181Z,94724.50
2023-03-24T07:45:38.417Z,94711.25
2023-03-24T07:48:06.529Z,94702.38
2023-03-24T07:50:35.580Z,94716.47
2023-03-24T07:53:03.793Z,94717.66
2023-03-24T07:55:31.596Z,94724.59
2023-03-24T07:58:05.627Z,94734.84
2023-03-24T08:01:14.685Z,94723.34
2023-03-24T08:06:57.227Z,94737.16
2023-03-24T08:10:04.529Z,94727.97
2023-03-24T08:15:54.690Z,94715.41
2023-03-24T08:18:42.464Z,94703.13
2023-03-24T08:21:24.244Z,94700.00
2023-03-24T08:23:59.130Z,94700.97
2023-03-24T08:26:34.493Z,94695.72
2023-03-24T08:29:08.044Z,94699.47
2023-03-24T08:31:44.635Z,94711.25
2023-03-24T08:34:48.512Z,94713.94
2023-03-24T08:40:15.978Z,94716.06
2023-03-24T08:43:03.737Z,94708.19
2023-03-24T08:52:18.058Z,94720.38
2023-03-24T08:55:20.634Z,94724.41
2023-03-24T08:57:51.601Z,94729.75
2023-03-24T09:00:29.608Z,94736.53
2023-03-24T09:03:01.172Z,94737.19
2023-03-24T09:08:11.487Z,94741.81
2023-03-24T09:10:42.461Z,94735.69
2023-03-24T09:13:19.205Z,94732.56
2023-03-24T09:15:52.862Z,94735.84
2023-03-24T09:18:30.303Z,94740.25
2023-03-24T09:21:06.761Z,94739.34
2023-03-24T09:23:34.903Z,94741.66
2023-03-24T09:26:14.542Z,94737.16
2023-03-24T09:28:43.457Z,94735.91
2023-03-24T09:31:11.978Z,94751.06
2023-03-24T09:33:39.759Z,94754.94
2023-03-24T09:36:08.667Z,94759.81
2023-03-24T09:38:36.588Z,94771.28
2023-03-24T09:41:06.446Z,94764.38
2023-03-24T09:43:39.403Z,94781.03
2023-03-24T09:46:14.680Z,94772.91
2023-03-24T09:48:47.547Z,94788.16
2023-03-24T09:51:23.517Z,94793.13
2023-03-24T09:53:56.961Z,94794.91
2023-03-24T09:56:29.641Z,94794.56
2023-03-24T09:59:05.419Z,94806.13
2023-03-24T10:01:37.297Z,94813.81
2023-03-24T10:04:06.433Z,94810.44
2023-03-24T10:06:40.099Z,94815.06
2023-03-24T10:09:22.726Z,94819.41
2023-03-24T10:12:02.922Z,94813.66
2023-03-24T10:14:47.985Z,94818.16
2023-03-24T10:17:23.614Z,94824.75
2023-03-24T10:19:59.991Z,94826.50
2023-03-24T10:22:37.324Z,94832.41
2023-03-24T10:25:15.968Z,94835.75
2023-03-24T10:27:48.541Z,94828.72
2023-03-24T10:30:19.249Z,94839.16
2023-03-24T10:32:47.795Z,94846.84
2023-03-24T10:35:19.344Z,94848.59
2023-03-24T10:37:50.982Z,94848.56
2023-03-24T10:40:22.189Z,94850.34
2023-03-24T10:43:06.788Z,94845.19
2023-03-24T10:45:37.997Z,94850.06
2023-03-24T10:48:07.430Z,94843.81
2023-03-24T10:50:38.138Z,94845.25
2023-03-24T10:53:10.895Z,94838.06
2023-03-24T10:55:40.247Z,94832.25
2023-03-24T10:58:19.637Z,94842.06
2023-03-24T11:00:50.500Z,94850.59
2023-03-24T11:03:27.048Z,94843.81
2023-03-24T11:05:59.907Z,94850.56
2023-03-24T11:08:35.628Z,94856.78
2023-03-24T11:11:15.151Z,94852.94
2023-03-24T11:13:56.791Z,94846.19
2023-03-24T11:16:29.860Z,94846.34
2023-03-24T11:19:01.632Z,94849.88
2023-03-24T11:21:31.389Z,94840.56
2023-03-24T11:24:00.296Z,94861.19
2023-03-24T11:26:33.009Z,94855.69
2023-03-24T11:29:04.997Z,94867.03
2023-03-24T11:31:38.274Z,94870.97
2023-03-24T11:34:10.618Z,94850.81
2023-03-24T11:36:48.455Z,94845.06
2023-03-24T11:39:20.067Z,94835.97
2023-03-24T11:42:06.648Z,94827.50
2023-03-24T11:44:45.874Z,94802.94
2023-03-24T11:47:19.211Z,94814.38
2023-03-24T11:49:54.234Z,94801.59
2023-03-24T11:52:34.591Z,94809.63
2023-03-24T11:55:02.332Z,94796.50
2023-03-24T11:57:46.921Z,94788.19
2023-03-24T12:00:27.946Z,94783.03
2023-03-24T12:03:11.879Z,94781.59
2023-03-24T12:05:44.574Z,94788.16
2023-03-24T12:08:28.493Z,94782.00
2023-03-24T12:11:12.807Z,94771.09
2023-03-24T12:13:42.923Z,94766.00
2023-03-24T12:16:41.286Z,94766.66
2023-03-24T12:19:43.083Z,94765.06
2023-03-24T12:22:24.599Z,94747.97
2023-03-24T12:25:09.934Z,94743.31
2023-03-24T12:27:49.041Z,94746.72
2023-03-24T12:30:25.867Z,94750.25
2023-03-24T12:33:06.253Z,94748.06
2023-03-24T12:35:56.155Z,94742.47
2023-03-24T12:38:40.087Z,94744.25
2023-03-24T12:41:25.862Z,94748.66
2023-03-24T12:44:13.478Z,94755.84
2023-03-24T12:46:52.614Z,94753.50
2023-03-24T12:49:40.889Z,94741.63
2023-03-24T12:52:22.046Z,94745.47
2023-03-24T12:54:55.976Z,94744.91
2023-03-24T12:57:29.181Z,94755.09
2023-03-24T13:00:00.816Z,94748.69
2023-03-24T13:02:34.801Z,94755.38
2023-03-24T13:05:07.497Z,94754.13
2023-03-24T13:07:39.148Z,94750.59
2023-03-24T13:10:14.652Z,94751.94
2023-03-24T13:12:47.608Z,94750.53
2023-03-24T13:15:19.158Z,94743.81
2023-03-24T13:17:51.158Z,94763.97
2023-03-24T13:20:27.278Z,94783.91
2023-03-24T13:23:03.350Z,94781.25
2023-03-24T13:25:40.829Z,94789.31
2023-03-24T13:28:14.234Z,94778.22
2023-03-24T13:30:44.197Z,94766.69
2023-03-24T13:33:16.104Z,94762.19
2023-03-24T13:36:01.185Z,94763.97
2023-03-24T13:38:48.778Z,94768.44
2023-03-24T13:49:17.251Z,94743.06
2023-03-24T13:54:40.758Z,94756.78
2023-03-24T14:03:34.296Z,94719.09
2023-03-24T14:06:53.244Z,94706.78
2023-03-24T14:09:49.292Z,94694.16
2023-03-24T14:17:20.664Z,94668.53
2023-03-24T14:20:25.704Z,94677.34
2023-03-24T14:26:52.769Z,94673.38
2023-03-24T14:40:43.859Z,94655.81
2023-03-24T14:43:57.776Z,94654.19
2023-03-24T14:53:23.577Z,94628.69
2023-03-24T14:56:46.358Z,94638.66
2023-03-24T15:05:37.391Z,94661.72
2023-03-24T15:08:25.775Z,94660.25
2023-03-24T15:11:17.675Z,94655.94
2023-03-24T15:30:16.861Z,94686.56
2023-03-24T15:32:49.346Z,94686.69
2023-03-24T15:35:20.731Z,94697.59
2023-03-24T15:37:54.244Z,94699.38
2023-03-24T15:40:42.535Z,94688.00
2023-03-24T15:43:20.526Z,94704.66
2023-03-24T15:46:04.852Z,94713.94
2023-03-24T15:48:39.298Z,94715.34
2023-03-24T15:51:09.746Z,94722.91
2023-03-24T15:53:45.221Z,94715.84
2023-03-24T15:56:21.447Z,94719.19
2023-03-24T15:58:54.065Z,94735.03
2023-03-24T16:01:31.226Z,94735.34
2023-03-24T16:04:02.830Z,94755.94
2023-03-24T16:06:35.449Z,94755.81
2023-03-24T16:09:08.543Z,94772.25
2023-03-24T16:11:38.914Z,94771.53
2023-03-24T16:14:23.770Z,94771.97
2023-03-24T16:16:58.333Z,94780.56
2023-03-24T16:19:26.232Z,94784.47
2023-03-24T16:21:54.766Z,94797.47
2023-03-24T16:24:24.499Z,94805.81
2023-03-24T16:26:52.495Z,94802.69
2023-03-24T16:29:26.458Z,94812.03
2023-03-24T16:31:59.663Z,94817.56
2023-03-24T16:34:27.548Z,94816.84
2023-03-24T16:36:56.579Z,94799.78
2023-03-24T16:39:27.668Z,94790.94
2023-03-24T16:41:56.573Z,94786.63
2023-03-24T16:44:24.756Z,94786.13
2023-03-24T16:46:55.151Z,94780.50
2023-03-24T16:49:24.492Z,94774.56
2023-03-24T16:51:53.039Z,94774.56
2023-03-24T16:54:22.691Z,94782.19
2023-03-24T16:56:51.836Z,94797.06
2023-03-24T16:59:19.855Z,94773.56
2023-03-24T17:01:48.333Z,94754.06
2023-03-24T17:04:17.477Z,94725.66
2023-03-24T17:06:49.107Z,94730.41
2023-03-24T17:09:17.027Z,94746.16
2023-03-24T17:11:46.751Z,94756.78
2023-03-24T17:14:16.305Z,94779.28
2023-03-24T17:16:45.947Z,94773.75
2023-03-24T17:19:15.422Z,94783.88
2023-03-24T17:22:32.392Z,94791.94
2023-03-24T17:25:47.983Z,94795.31
2023-03-24T17:38:13.162Z,94799.44
2023-03-24T17:40:41.004Z,94798.63
2023-03-24T17:43:08.973Z,94795.03
2023-03-24T17:59:59.934Z,94759.78
2023-03-24T18:02:47.400Z,94754.78
2023-03-24T18:05:30.369Z,94762.78
2023-03-24T18:08:22.281Z,94762.19
2023-03-24T18:13:31.481Z,94779.28
2023-03-24T18:16:04.057Z,94780.50
2023-03-24T18:18:39.033Z,94778.97
2023-03-24T18:21:08.759Z,94779.78
2023-03-24T18:23:36.848Z,94772.25
2023-03-24T18:26:11.883Z,94768.94
2023-03-24T18:28:40.043Z,94770.53
2023-03-24T18:31:10.066Z,94774.56
2023-03-24T18:33:37.823Z,94782.06
2023-03-24T18:36:06.580Z,94780.47
2023-03-24T18:38:35.714Z,94795.81
2023-03-24T18:41:05.268Z,94793.53
2023-03-24T18:43:34.494Z,94801.38
2023-03-24T18:46:02.282Z,94786.00
2023-03-24T18:48:29.995Z,94779.50
2023-03-24T18:50:57.721Z,94782.78
2023-03-24T18:53:25.612Z,94779.09
2023-03-24T18:55:54.795Z,94783.44
2023-03-24T18:58:22.492Z,94792.84
2023-03-24T19:00:54.362Z,94797.97
2023-03-24T19:03:23.510Z,94802.50
2023-03-24T19:05:53.080Z,94795.59
2023-03-24T19:08:21.465Z,94800.69
2023-03-24T19:10:49.447Z,94818.09
2023-03-24T19:13:21.332Z,94817.47
2023-03-24T19:15:49.649Z,94828.94
2023-03-24T19:18:17.536Z,94828.59
2023-03-24T19:20:45.295Z,94830.94
2023-03-24T19:23:12.994Z,94831.44
2023-03-24T19:25:41.582Z,94825.00
2023-03-24T19:28:09.394Z,94837.88
2023-03-24T19:30:40.085Z,94834.53
2023-03-24T19:33:08.681Z,94843.69
2023-03-24T19:35:36.576Z,94839.78
2023-03-24T19:38:04.512Z,94845.50
2023-03-24T19:40:32.358Z,94856.56
2023-03-24T19:43:01.904Z,94863.78
2023-03-24T19:45:29.590Z,94871.63
2023-03-24T19:47:58.739Z,94876.53
2023-03-24T19:50:26.637Z,94871.31
2023-03-24T19:52:54.604Z,94872.22
2023-03-24T19:55:25.312Z,94868.81
2023-03-24T19:57:56.808Z,94861.69
2023-03-24T20:00:24.762Z,94858.56
2023-03-24T20:02:52.552Z,94860.47
2023-03-24T20:05:22.027Z,94864.28
2023-03-24T20:07:49.837Z,94858.06
2023-03-24T20:10:17.738Z,94862.47
2023-03-24T20:12:45.462Z,94860.16
2023-03-24T20:15:13.180Z,94864.66
2023-03-24T20:17:41.199Z,94861.84
2023-03-24T20:20:11.221Z,94851.50
2023-03-24T20:22:42.040Z,94843.47
2023-03-24T20:25:11.174Z,94838.41
2023-03-24T20:27:38.958Z,94835.50
2023-03-24T20:30:09.533Z,94842.13
2023-03-24T20:32:37.811Z,94833.25
2023-03-24T20:35:09.118Z,94838.91
2023-03-24T20:37:37.340Z,94853.03
2023-03-24T20:40:09.896Z,94843.22
2023-03-24T20:42:38.546Z,94823.81
2023-03-24T20:45:08.252Z,94815.97
2023-03-24T20:47:36.766Z,94813.69
2023-03-24T20:50:06.039Z,94813.09
2023-03-24T20:52:34.988Z,94813.88
2023-03-24T20:55:06.182Z,94818.22
2023-03-24T20:57:36.170Z,94810.44
2023-03-24T21:00:13.345Z,94816.75
2023-03-24T21:02:42.783Z,94801.00
2023-03-24T21:05:11.806Z,94810.25
2023-03-24T21:07:43.562Z,94813.03
2023-03-24T21:10:12.660Z,94815.44
2023-03-24T21:12:52.381Z,94810.25
2023-03-24T21:15:22.168Z,94805.63
2023-03-24T21:17:50.186Z,94812.00
2023-03-24T21:20:19.104Z,94794.13
2023-03-24T21:22:55.177Z,94806.66
2023-03-24T21:25:25.846Z,94799.06
2023-03-24T21:27:55.758Z,94808.88
2023-03-24T21:30:24.548Z,94817.88
2023-03-24T21:32:54.267Z,94821.22
2023-03-24T21:35:22.657Z,94819.19
2023-03-24T21:37:54.010Z,94816.50
2023-03-24T21:40:25.005Z,94822.41
2023-03-24T21:42:55.817Z,94819.13
2023-03-24T21:45:24.622Z,94828.66
2023-03-24T21:47:54.685Z,94830.34
2023-03-24T21:50:24.107Z,94837.66
2023-03-24T21:52:53.747Z,94849.59
2023-03-24T21:55:23.228Z,94851.09
2023-03-24T21:57:51.922Z,94845.09
2023-03-24T22:00:23.621Z,94856.75
2023-03-24T22:02:53.718Z,94849.31
2023-03-24T22:05:23.788Z,94870.06
2023-03-24T22:07:52.628Z,94859.88
2023-03-24T22:10:22.689Z,94864.22
2023-03-24T22:12:50.694Z,94863.69
2023-03-24T22:15:19.083Z,94858.91
2023-03-24T22:17:48.147Z,94860.78
2023-03-24T22:20:16.208Z,94882.75
2023-03-24T22:22:44.421Z,94867.81
2023-03-24T22:25:14.890Z,94874.13
2023-03-24T22:27:42.620Z,94883.34
2023-03-24T22:30:12.551Z,94883.94
2023-03-24T22:32:40.688Z,94886.41
2023-03-24T22:35:10.767Z,94891.59
2023-03-24T22:37:38.819Z,94894.94
2023-03-24T22:40:09.018Z,94891.94
2023-03-24T22:42:36.789Z,94890.91
2023-03-24T22:45:04.651Z,94896.81
2023-03-24T22:47:32.376Z,94883.19
2023-03-24T22:50:00.195Z,94895.50
2023-03-24T22:52:29.367Z,94890.44
2023-03-24T22:59:49.924Z,94904.69
2023-03-24T23:02:24.264Z,94906.88
2023-03-24T23:04:52.177Z,94903.13
2023-03-24T23:07:23.137Z,94902.97
2023-03-24T23:09:53.283Z,94914.88
2023-03-24T23:12:21.396Z,94916.19
2023-03-24T23:14:54.281Z,94930.31
2023-03-24T23:17:25.130Z,94920.09
2023-03-24T23:19:53.111Z,94921.94
2023-03-24T23:22:21.267Z,94931.72
2023-03-24T23:24:48.993Z,94924.94
2023-03-24T23:27:17.346Z,94922.81
2023-03-24T23:29:45.071Z,94921.16
2023-03-24T23:32:14.461Z,94926.94
2023-03-24T23:34:44.107Z,94923.97
2023-03-24T23:37:11.823Z,94925.13
2023-03-24T23:39:39.564Z,94934.69
2023-03-24T23:42:07.314Z,94925.47
2023-03-24T23:44:35.007Z,94928.19
2023-03-24T23:47:02.737Z,94930.28
2023-03-24T23:49:31.864Z,94937.69
2023-03-24T23:51:59.572Z,94936.91
2023-03-24T23:54:27.357Z,94932.84
2023-03-24T23:56:55.101Z,94939.56
2023-03-24T23:59:22.867Z,94941.41
